createdAt,value
2024-03-12T00:00:33.332Z,5.61
2024-03-12T00:03:37.571Z,5.55
2024-03-12T00:06:43.353Z,4.90
2024-03-12T00:09:47.216Z,4.68
2024-03-12T00:12:53.355Z,4.51
2024-03-12T00:15:57.625Z,4.43
2024-03-12T00:19:01.704Z,5.00
2024-03-12T00:22:09.112Z,4.98
2024-03-12T00:25:12.746Z,5.26
2024-03-12T00:28:16.606Z,5.54
2024-03-12T00:31:20.387Z,5.04
2024-03-12T00:34:24.040Z,4.64
2024-03-12T00:37:29.355Z,4.43
2024-03-12T00:40:35.596Z,4.29
2024-03-12T00:43:39.554Z,4.94
2024-03-12T00:46:43.367Z,5.07
2024-03-12T00:49:47.075Z,4.99
2024-03-12T00:52:54.210Z,4.79
2024-03-12T00:55:59.428Z,5.01
2024-03-12T00:59:03.032Z,5.07
2024-03-12T01:02:06.643Z,4.99
2024-03-12T01:05:11.160Z,4.85
2024-03-12T01:08:16.258Z,4.31
2024-03-12T01:11:19.851Z,4.70
2024-03-12T01:14:23.936Z,4.53
2024-03-12T01:17:27.550Z,4.62
2024-03-12T01:20:35.160Z,4.59
2024-03-12T01:23:41.933Z,4.66
2024-03-12T01:26:45.798Z,4.48
2024-03-12T01:29:49.389Z,4.58
2024-03-12T01:32:54.084Z,4.54
2024-03-12T01:36:06.846Z,4.75
2024-03-12T01:39:17.307Z,4.30
2024-03-12T01:42:22.737Z,5.03
2024-03-12T01:45:27.385Z,4.32
2024-03-12T01:48:32.821Z,4.56
2024-03-12T01:51:37.920Z,4.18
2024-03-12T01:54:45.027Z,4.88
2024-03-12T01:57:49.631Z,4.07
2024-03-12T02:00:53.322Z,3.74
2024-03-12T02:03:57.539Z,3.56
2024-03-12T02:07:01.227Z,3.53
2024-03-12T02:10:07.520Z,3.24
2024-03-12T02:13:11.208Z,3.43
2024-03-12T02:16:14.873Z,3.42
2024-03-12T02:19:19.450Z,4.01
2024-03-12T02:22:22.796Z,3.76
2024-03-12T02:25:27.759Z,3.57
2024-03-12T02:28:31.227Z,3.83
2024-03-12T02:31:35.135Z,3.80
2024-03-12T02:34:39.531Z,3.69
2024-03-12T02:37:43.674Z,3.74
2024-03-12T02:40:48.814Z,4.03
2024-03-12T02:43:53.117Z,4.08
2024-03-12T02:46:56.802Z,3.50
2024-03-12T02:50:00.643Z,3.38
2024-03-12T02:53:05.171Z,3.34
2024-03-12T02:56:10.596Z,3.07
2024-03-12T02:59:14.325Z,3.40
2024-03-12T03:02:18.007Z,3.57
2024-03-12T03:05:21.393Z,3.61
2024-03-12T03:08:24.907Z,3.78
2024-03-12T03:11:30.390Z,3.88
2024-03-12T03:14:34.067Z,4.18
2024-03-12T03:17:37.839Z,3.75
2024-03-12T03:20:41.547Z,3.90
2024-03-12T03:23:45.117Z,4.04
2024-03-12T03:26:52.266Z,3.40
2024-03-12T03:29:57.999Z,3.49
2024-03-12T03:33:01.689Z,3.87
2024-03-12T03:36:05.804Z,3.79
2024-03-12T03:39:09.781Z,3.80
2024-03-12T03:42:14.923Z,3.63
2024-03-12T03:45:19.116Z,3.83
2024-03-12T03:48:22.863Z,3.34
2024-03-12T03:51:27.081Z,3.39
2024-03-12T03:54:30.562Z,3.13
2024-03-12T03:57:35.842Z,3.02
2024-03-12T04:00:40.910Z,3.48
2024-03-12T04:03:44.604Z,3.34
2024-03-12T04:06:51.921Z,3.45
2024-03-12T04:09:57.400Z,3.30
2024-03-12T04:13:02.729Z,3.46
2024-03-12T04:16:07.251Z,3.10
2024-03-12T04:19:11.133Z,3.33
2024-03-12T04:22:14.828Z,3.28
2024-03-12T04:25:18.799Z,3.14
2024-03-12T04:28:24.083Z,2.73
2024-03-12T04:34:24.804Z,2.48
2024-03-12T04:37:32.884Z,2.57
2024-03-12T04:40:36.913Z,2.66
2024-03-12T04:43:43.064Z,2.76
2024-03-12T04:46:46.782Z,3.12
2024-03-12T04:49:52.702Z,3.04
2024-03-12T04:52:56.314Z,2.94
2024-03-12T04:56:00.029Z,2.91
2024-03-12T04:59:03.727Z,2.28
2024-03-12T05:02:07.436Z,2.54
2024-03-12T05:05:14.936Z,2.25
2024-03-12T05:08:19.599Z,2.13
2024-03-12T05:11:23.056Z,2.14
2024-03-12T05:14:26.620Z,2.53
2024-03-12T05:17:30.344Z,1.81
2024-03-12T05:20:37.388Z,1.96
2024-03-12T05:23:41.025Z,1.47
2024-03-12T05:26:46.055Z,2.16
2024-03-12T05:29:53.799Z,1.39
2024-03-12T05:32:57.583Z,2.03
2024-03-12T05:36:10.436Z,2.21
2024-03-12T05:39:20.178Z,2.20
2024-03-12T05:42:41.438Z,2.14
2024-03-12T05:46:03.076Z,2.12
2024-03-12T05:49:10.254Z,1.91
2024-03-12T05:52:17.164Z,2.18
2024-03-12T05:55:20.601Z,2.08
2024-03-12T05:58:24.352Z,1.98
2024-03-12T06:01:29.376Z,1.89
2024-03-12T06:04:34.027Z,1.80
2024-03-12T06:07:39.144Z,1.71
2024-03-12T06:10:42.795Z,1.72
2024-03-12T06:13:46.598Z,1.93
2024-03-12T06:22:04.734Z,1.97
2024-03-12T06:38:36.661Z,2.65
2024-03-12T06:41:42.511Z,2.94
2024-03-12T06:44:50.782Z,3.25
2024-03-12T06:47:56.761Z,3.22
2024-03-12T06:51:01.540Z,3.16
2024-03-12T06:54:08.308Z,3.34
2024-03-12T06:57:14.603Z,3.23
2024-03-12T07:00:27.729Z,2.94
2024-03-12T07:03:32.660Z,3.25
2024-03-12T07:06:36.902Z,3.21
2024-03-12T07:09:42.703Z,3.55
2024-03-12T07:12:47.298Z,3.71
2024-03-12T07:15:51.037Z,3.99
2024-03-12T07:18:56.638Z,4.00
2024-03-12T07:22:00.810Z,4.10
2024-03-12T07:25:07.174Z,3.84
2024-03-12T07:28:11.528Z,4.53
2024-03-12T07:31:17.088Z,4.66
2024-03-12T07:34:21.757Z,4.80
2024-03-12T07:37:25.639Z,5.04
2024-03-12T07:40:30.998Z,5.41
2024-03-12T07:43:34.965Z,5.59
2024-03-12T07:46:38.711Z,5.89
2024-03-12T07:49:43.071Z,6.35
2024-03-12T07:52:47.333Z,6.56
2024-03-12T07:55:54.398Z,6.63
2024-03-12T07:58:58.369Z,6.94
2024-03-12T08:02:05.206Z,7.25
2024-03-12T08:05:09.593Z,7.62
2024-03-12T08:08:13.357Z,7.90
2024-03-12T08:11:20.251Z,8.34
2024-03-12T08:14:23.959Z,8.18
2024-03-12T08:17:29.607Z,8.18
2024-03-12T08:20:33.532Z,8.15
2024-03-12T08:23:37.543Z,8.05
2024-03-12T08:26:43.999Z,8.18
2024-03-12T08:29:47.739Z,8.09
2024-03-12T08:32:51.674Z,8.13
2024-03-12T08:35:55.876Z,8.28
2024-03-12T08:39:00.149Z,8.24
2024-03-12T08:42:09.936Z,8.26
2024-03-12T08:45:15.414Z,8.23
2024-03-12T08:48:19.554Z,8.33
2024-03-12T08:51:24.936Z,8.49
2024-03-12T08:54:28.965Z,8.33
2024-03-12T08:57:34.137Z,8.37
2024-03-12T09:00:38.918Z,8.36
2024-03-12T09:03:46.555Z,8.45
2024-03-12T09:06:53.509Z,8.42
2024-03-12T09:09:59.811Z,8.51
2024-03-12T09:13:05.662Z,8.61
2024-03-12T09:16:11.676Z,8.39
2024-03-12T09:19:16.413Z,8.34
2024-03-12T09:22:20.228Z,8.25
2024-03-12T09:25:24.491Z,8.39
2024-03-12T09:28:29.755Z,8.41
2024-03-12T09:31:35.154Z,8.42
2024-03-12T09:34:43.468Z,8.37
2024-03-12T09:37:47.507Z,8.33
2024-03-12T09:40:54.200Z,8.35
2024-03-12T09:43:59.793Z,8.45
2024-03-12T09:47:04.672Z,8.44
2024-03-12T09:50:14.218Z,8.50
2024-03-12T09:53:21.078Z,8.46
2024-03-12T09:56:26.561Z,8.43
2024-03-12T09:59:52.775Z,8.35
2024-03-12T10:03:06.765Z,8.49
2024-03-12T10:06:11.286Z,8.57
2024-03-12T10:09:18.314Z,8.59
2024-03-12T10:12:22.970Z,8.62
2024-03-12T10:15:28.290Z,8.77
2024-03-12T10:18:34.498Z,8.73
2024-03-12T10:21:38.655Z,8.55
2024-03-12T10:24:42.454Z,8.70
2024-03-12T10:28:03.772Z,8.73
2024-03-12T10:34:31.045Z,8.79
2024-03-12T10:37:36.205Z,8.54
2024-03-12T10:40:40.531Z,8.78
2024-03-12T10:43:46.941Z,8.91
2024-03-12T10:46:51.446Z,8.75
2024-03-12T10:49:57.360Z,8.80
2024-03-12T10:53:02.327Z,8.80
2024-03-12T10:56:12.668Z,8.91
2024-03-12T10:59:20.683Z,8.77
2024-03-12T11:02:24.390Z,8.76
2024-03-12T11:05:33.909Z,8.73
2024-03-12T11:08:38.201Z,8.89
2024-03-12T11:11:42.331Z,8.79
2024-03-12T11:14:46.529Z,8.71
2024-03-12T11:17:51.593Z,8.73
2024-03-12T11:20:57.149Z,8.83
2024-03-12T11:24:01.123Z,8.97
2024-03-12T11:27:05.339Z,8.91
2024-03-12T11:30:20.673Z,8.87
2024-03-12T11:34:04.510Z,8.86
2024-03-12T11:37:39.723Z,8.91
2024-03-12T11:41:12.081Z,8.92
2024-03-12T11:50:31.231Z,8.80
2024-03-12T12:05:41.272Z,8.77
2024-03-12T12:08:53.592Z,8.57
2024-03-12T12:12:05.114Z,8.73
2024-03-12T12:15:12.486Z,8.79
2024-03-12T12:18:16.413Z,8.80
2024-03-12T12:21:22.861Z,8.85
2024-03-12T12:24:27.987Z,8.95
2024-03-12T12:27:33.451Z,8.91
2024-03-12T12:30:40.027Z,9.14
2024-03-12T12:34:30.349Z,9.26
2024-03-12T12:38:31.076Z,9.22
2024-03-12T12:41:39.983Z,9.23
2024-03-12T12:44:43.914Z,9.32
2024-03-12T12:47:50.109Z,9.45
2024-03-12T12:50:55.817Z,9.65
2024-03-12T12:54:03.369Z,9.66
2024-03-12T12:57:11.786Z,9.64
2024-03-12T13:00:22.397Z,9.72
2024-03-12T13:03:26.289Z,9.74
2024-03-12T13:06:30.558Z,9.65
2024-03-12T13:09:38.102Z,9.78
2024-03-12T13:12:44.041Z,9.72
2024-03-12T13:15:48.059Z,9.82
2024-03-12T13:18:53.072Z,10.12
2024-03-12T13:22:00.510Z,10.15
2024-03-12T13:25:06.355Z,10.36
2024-03-12T13:28:11.781Z,10.30
2024-03-12T13:31:16.482Z,10.20
2024-03-12T13:34:20.776Z,10.27
2024-03-12T13:37:24.568Z,10.36
2024-03-12T13:40:28.857Z,10.49
2024-03-12T13:43:33.856Z,10.32
2024-03-12T13:46:42.211Z,10.22
2024-03-12T13:49:49.116Z,10.35
2024-03-12T13:52:53.201Z,10.19
2024-03-12T13:55:57.333Z,10.32
2024-03-12T13:59:02.988Z,10.16
2024-03-12T14:02:08.307Z,10.00
2024-03-12T14:05:13.658Z,9.92
2024-03-12T14:08:18.674Z,9.83
2024-03-12T14:11:22.600Z,9.73
2024-03-12T14:14:29.187Z,9.77
2024-03-12T14:17:32.939Z,9.70
2024-03-12T14:20:37.968Z,9.63
2024-03-12T14:23:41.704Z,9.46
2024-03-12T14:26:45.494Z,9.64
2024-03-12T14:29:50.488Z,9.49
2024-03-12T14:33:57.653Z,9.45
2024-03-12T14:38:07.961Z,9.05
2024-03-12T14:41:34.630Z,9.30
2024-03-12T14:49:38.765Z,9.19
2024-03-12T14:52:43.209Z,9.15
2024-03-12T14:55:46.923Z,9.18
2024-03-12T14:58:50.535Z,9.16
2024-03-12T15:01:55.569Z,9.13
2024-03-12T15:05:00.197Z,9.13
2024-03-12T15:08:05.475Z,9.21
2024-03-12T15:11:09.676Z,9.21
2024-03-12T15:14:14.827Z,9.24
2024-03-12T15:17:21.413Z,9.30
2024-03-12T15:20:25.323Z,9.29
2024-03-12T15:23:29.897Z,9.31
2024-03-12T15:26:34.987Z,9.23
2024-03-12T15:29:38.731Z,9.30
2024-03-12T15:32:43.763Z,9.26
2024-03-12T15:35:47.592Z,9.29
2024-03-12T15:38:51.920Z,9.27
2024-03-12T15:41:56.713Z,9.45
2024-03-12T15:45:00.574Z,9.34
2024-03-12T15:48:08.751Z,9.31
2024-03-12T15:51:13.667Z,9.28
2024-03-12T15:54:17.502Z,9.33
2024-03-12T15:57:22.224Z,9.22
2024-03-12T16:00:25.570Z,9.20
2024-03-12T16:03:30.539Z,9.21
2024-03-12T16:06:35.153Z,9.13
2024-03-12T16:09:39.368Z,9.10
2024-03-12T16:12:46.119Z,9.08
2024-03-12T16:15:51.073Z,9.05
2024-03-12T16:18:56.651Z,9.05
2024-03-12T16:22:01.347Z,8.97
2024-03-12T16:25:06.883Z,8.92
2024-03-12T16:28:10.997Z,8.92
2024-03-12T16:34:26.877Z,8.68
2024-03-12T16:37:30.675Z,8.70
2024-03-12T16:40:34.493Z,8.69
2024-03-12T16:43:38.141Z,8.66
2024-03-12T16:46:41.901Z,8.68
2024-03-12T16:49:48.177Z,8.65
2024-03-12T16:52:51.806Z,8.68
2024-03-12T16:55:55.626Z,8.63
2024-03-12T16:58:59.517Z,8.61
2024-03-12T17:02:09.176Z,8.56
2024-03-12T17:05:17.526Z,8.58
2024-03-12T17:08:21.278Z,8.56
2024-03-12T17:11:25.443Z,8.45
2024-03-12T17:14:34.647Z,8.45
2024-03-12T17:17:40.965Z,8.42
2024-03-12T17:20:47.720Z,8.57
2024-03-12T17:23:51.998Z,8.41
2024-03-12T17:26:56.038Z,8.45
2024-03-12T17:30:00.368Z,8.37
2024-03-12T17:33:06.740Z,8.30
2024-03-12T17:36:18.543Z,8.29
2024-03-12T17:39:23.254Z,8.32
2024-03-12T17:42:27.389Z,8.18
2024-03-12T17:45:32.693Z,8.27
2024-03-12T17:48:41.243Z,8.19
2024-03-12T17:51:47.275Z,8.23
2024-03-12T17:54:51.682Z,8.14
2024-03-12T17:57:56.340Z,8.17
2024-03-12T18:01:00.617Z,8.13
2024-03-12T18:04:04.898Z,8.09
2024-03-12T18:07:22.411Z,8.03
2024-03-12T18:10:28.377Z,7.99
2024-03-12T18:13:32.606Z,7.97
2024-03-12T18:16:38.399Z,7.91
2024-03-12T18:19:42.590Z,7.90
2024-03-12T18:22:48.913Z,7.89
2024-03-12T18:25:52.768Z,7.98
2024-03-12T18:28:57.818Z,7.75
2024-03-12T18:32:02.887Z,7.77
2024-03-12T18:35:08.887Z,7.71
2024-03-12T18:38:13.859Z,7.83
2024-03-12T18:41:17.494Z,7.72
2024-03-12T18:44:22.920Z,7.66
2024-03-12T18:47:27.285Z,7.64
2024-03-12T18:50:31.932Z,7.64
2024-03-12T18:53:38.179Z,7.59
2024-03-12T18:56:43.589Z,7.63
2024-03-12T18:59:47.615Z,7.74
2024-03-12T19:02:53.350Z,7.65
2024-03-12T19:05:58.601Z,7.65
2024-03-12T19:09:04.269Z,7.85
2024-03-12T19:12:11.745Z,7.61
2024-03-12T19:15:21.666Z,7.52
2024-03-12T19:18:25.986Z,7.53
2024-03-12T19:21:30.493Z,7.61
2024-03-12T19:24:35.742Z,7.60
2024-03-12T19:27:40.066Z,7.74
2024-03-12T19:30:44.362Z,7.55
2024-03-12T19:33:48.244Z,7.54
2024-03-12T19:36:52.446Z,7.50
2024-03-12T19:40:00.371Z,7.53
2024-03-12T19:43:04.711Z,7.51
2024-03-12T19:46:09.012Z,7.48
2024-03-12T19:49:14.724Z,7.56
2024-03-12T19:52:19.672Z,7.50
2024-03-12T19:55:26.876Z,7.51
2024-03-12T19:58:31.893Z,7.42
2024-03-12T20:01:35.682Z,7.43
2024-03-12T20:04:39.419Z,7.44
2024-03-12T20:07:43.624Z,7.37
2024-03-12T20:10:48.587Z,7.31
2024-03-12T20:13:52.912Z,7.29
2024-03-12T20:16:57.239Z,7.26
2024-03-12T20:20:00.879Z,7.28
2024-03-12T20:23:06.906Z,7.36
2024-03-12T20:26:11.958Z,7.29
2024-03-12T20:29:15.577Z,7.23
2024-03-12T20:32:20.545Z,7.50
2024-03-12T20:35:24.474Z,7.32
2024-03-12T20:38:29.927Z,7.28
2024-03-12T20:41:36.490Z,7.70
2024-03-12T20:44:41.278Z,7.34
2024-03-12T20:47:46.538Z,7.31
2024-03-12T20:50:50.639Z,7.23
2024-03-12T20:53:54.951Z,7.22
2024-03-12T20:57:00.007Z,7.35
2024-03-12T21:00:17.402Z,7.33
2024-03-12T21:03:21.087Z,7.23
2024-03-12T21:06:25.549Z,7.24
2024-03-12T21:09:29.137Z,7.28
2024-03-12T21:12:34.859Z,7.20
2024-03-12T21:15:38.351Z,7.33
2024-03-12T21:18:43.397Z,7.29
2024-03-12T21:21:50.676Z,7.10
2024-03-12T21:24:58.241Z,7.19
2024-03-12T21:28:04.177Z,7.02
2024-03-12T21:31:07.868Z,7.03
2024-03-12T21:34:12.794Z,7.00
2024-03-12T21:37:17.030Z,7.14
2024-03-12T21:40:20.718Z,7.13
2024-03-12T21:43:25.866Z,6.60
2024-03-12T21:46:29.746Z,6.77
2024-03-12T21:49:33.371Z,7.13
2024-03-12T21:52:37.521Z,6.76
2024-03-12T21:55:41.389Z,6.94
2024-03-12T21:58:48.536Z,7.02
2024-03-12T22:01:52.176Z,7.01
2024-03-12T22:04:55.859Z,7.04
2024-03-12T22:07:59.493Z,7.19
2024-03-12T22:11:04.528Z,7.05
2024-03-12T22:14:12.191Z,6.79
2024-03-12T22:17:16.618Z,6.74
2024-03-12T22:20:21.031Z,6.85
2024-03-12T22:23:28.930Z,6.76
2024-03-12T22:26:32.647Z,6.19
2024-03-12T22:29:39.858Z,6.63
2024-03-12T22:34:25.449Z,6.60
2024-03-12T22:37:29.692Z,6.64
2024-03-12T22:40:33.470Z,6.62
2024-03-12T22:43:38.576Z,6.61
2024-03-12T22:46:43.747Z,6.60
2024-03-12T22:49:49.556Z,6.59
2024-03-12T22:52:55.559Z,6.68
2024-03-12T22:55:59.516Z,6.58
2024-03-12T22:59:03.873Z,6.45
2024-03-12T23:02:10.444Z,6.70
2024-03-12T23:05:17.170Z,6.61
2024-03-12T23:08:21.898Z,6.63
2024-03-12T23:11:28.264Z,6.75
2024-03-12T23:14:31.896Z,6.69
2024-03-12T23:17:37.441Z,6.89
2024-03-12T23:20:45.754Z,6.61
2024-03-12T23:23:49.411Z,6.52
2024-03-12T23:26:55.963Z,6.78
2024-03-12T23:30:01.154Z,6.99
2024-03-12T23:33:09.012Z,7.00
2024-03-12T23:36:18.094Z,6.88
2024-03-12T23:39:24.677Z,6.62
2024-03-12T23:42:28.243Z,6.66
2024-03-12T23:45:32.559Z,6.57
2024-03-12T23:48:36.096Z,6.49
2024-03-12T23:51:40.892Z,6.46
2024-03-12T23:54:44.851Z,6.46
2024-03-12T23:57:49.599Z,6.51
